Time;durP1;ratioP1;P1;durP2;ratioP2;P2;SDS_P1;SDS_P2;PMS_P1;PMS_P2;Temp;Humidity;BMP_temperature;BMP_pressure;BME280_temperature;BME280_humidity;BME280_pressure;Samples;Min_cycle;Max_cycle;Signal;HPM_P1;HPM_P2
2022/03/15 00:00:54;;;;;;;11.57;9.40;;;9.70;99.90;;;;;;5013402;28;20762;-64
2022/03/15 00:03:21;;;;;;;24.20;11.50;;;9.70;99.90;;;;;;5023395;28;20190;-61
2022/03/15 00:05:46;;;;;;;12.70;9.67;;;9.70;99.90;;;;;;5017444;28;20194;-60
2022/03/15 00:08:12;;;;;;;15.23;11.73;;;9.70;99.90;;;;;;5022017;28;20186;-60
2022/03/15 00:10:38;;;;;;;16.63;10.10;;;9.60;99.90;;;;;;5012896;28;20189;-60
2022/03/15 00:13:06;;;;;;;16.10;10.00;;;9.60;99.90;;;;;;5007028;28;20305;-60
2022/03/15 00:15:32;;;;;;;20.63;10.23;;;9.60;99.90;;;;;;4997104;28;20188;-61
2022/03/15 00:17:58;;;;;;;13.77;9.53;;;9.60;99.90;;;;;;5009694;28;20195;-61
2022/03/15 00:20:24;;;;;;;15.73;10.00;;;9.60;99.90;;;;;;5021345;28;20191;-61
2022/03/15 00:22:55;;;;;;;13.77;9.57;;;9.60;99.90;;;;;;5030672;28;20191;-61
2022/03/15 00:25:21;;;;;;;17.40;9.90;;;9.60;99.90;;;;;;5014719;28;20188;-60
2022/03/15 00:27:50;;;;;;;17.50;10.07;;;9.50;99.90;;;;;;5015199;28;20183;-60
2022/03/15 00:30:17;;;;;;;16.77;11.17;;;9.50;99.90;;;;;;5016018;28;20226;-60
2022/03/15 00:32:43;;;;;;;18.20;11.13;;;9.50;99.90;;;;;;5033690;28;20586;-60
2022/03/15 00:35:14;;;;;;;21.47;10.57;;;9.50;99.90;;;;;;5008345;28;20258;-61
2022/03/15 00:37:40;;;;;;;14.40;10.10;;;9.50;99.90;;;;;;5014402;28;20604;-60
2022/03/15 00:40:06;;;;;;;16.70;11.43;;;9.50;99.90;;;;;;5016393;28;20241;-60
2022/03/15 00:42:32;;;;;;;15.20;10.73;;;9.50;99.90;;;;;;4999239;28;20179;-60
2022/03/15 00:45:01;;;;;;;15.07;10.37;;;9.50;99.90;;;;;;5025632;28;20194;-60
2022/03/15 00:47:28;;;;;;;13.90;10.63;;;9.50;99.90;;;;;;5015064;28;20213;-60
2022/03/15 00:49:54;;;;;;;14.03;10.80;;;9.50;99.90;;;;;;5014902;28;20183;-60
2022/03/15 00:52:20;;;;;;;15.80;9.77;;;9.40;99.90;;;;;;5027054;28;20241;-60
2022/03/15 00:54:45;;;;;;;17.70;10.20;;;9.40;99.90;;;;;;5020058;28;20688;-60
2022/03/15 00:57:11;;;;;;;17.10;10.53;;;9.40;99.90;;;;;;5010992;28;20195;-60
2022/03/15 00:59:37;;;;;;;20.17;10.93;;;9.30;99.90;;;;;;5024380;28;20184;-60
2022/03/15 01:02:03;;;;;;;17.47;10.83;;;9.30;99.90;;;;;;5014425;28;20191;-60
2022/03/15 01:04:32;;;;;;;13.40;10.90;;;9.30;99.90;;;;;;5014288;28;20198;-60
2022/03/15 01:06:58;;;;;;;18.70;11.77;;;9.20;99.90;;;;;;5015099;28;20192;-60
2022/03/15 01:09:24;;;;;;;15.43;10.80;;;9.20;99.90;;;;;;5013849;28;20190;-60
2022/03/15 01:11:50;;;;;;;16.60;11.10;;;9.20;99.90;;;;;;4998358;28;20183;-60
2022/03/15 01:14:16;;;;;;;13.77;9.50;;;9.20;99.90;;;;;;5015476;28;20305;-60
2022/03/15 01:16:42;;;;;;;17.27;9.73;;;9.20;99.90;;;;;;5015427;28;20277;-61
2022/03/15 01:19:08;;;;;;;17.67;10.93;;;9.10;99.90;;;;;;5015319;28;20182;-58
2022/03/15 01:21:37;;;;;;;17.50;11.20;;;9.10;99.90;;;;;;5033023;28;20197;-61
2022/03/15 01:24:06;;;;;;;19.63;10.87;;;9.10;99.90;;;;;;5028137;28;20179;-58
2022/03/15 01:26:33;;;;;;;14.57;10.53;;;9.10;99.90;;;;;;4996341;28;20675;-59
2022/03/15 01:29:00;;;;;;;15.30;11.30;;;9.00;99.90;;;;;;4996748;28;20219;-59
2022/03/15 01:31:26;;;;;;;15.73;12.10;;;9.10;99.90;;;;;;5024662;28;20242;-60
2022/03/15 01:33:52;;;;;;;22.33;11.63;;;9.10;99.90;;;;;;5010278;28;20699;-59
2022/03/15 01:36:18;;;;;;;16.73;10.73;;;8.90;99.90;;;;;;5011174;28;20203;-59
2022/03/15 01:38:44;;;;;;;20.13;13.00;;;8.90;99.90;;;;;;5014262;28;20745;-59
2022/03/15 01:41:09;;;;;;;17.30;10.97;;;9.00;99.90;;;;;;5013946;28;20199;-61
2022/03/15 01:43:35;;;;;;;19.30;12.00;;;8.90;99.90;;;;;;4996434;28;20199;-60
2022/03/15 01:46:01;;;;;;;20.93;12.90;;;8.90;99.90;;;;;;5013692;28;20287;-60
2022/03/15 01:48:27;;;;;;;17.30;12.53;;;8.90;99.90;;;;;;4988100;28;20278;-59
2022/03/15 01:50:53;;;;;;;20.57;12.53;;;8.80;99.90;;;;;;5014221;28;20534;-59
2022/03/15 01:53:19;;;;;;;16.83;12.00;;;8.80;99.90;;;;;;5027949;28;20214;-59
2022/03/15 01:55:45;;;;;;;15.20;11.70;;;8.80;99.90;;;;;;5011031;28;20187;-60
2022/03/15 01:58:10;;;;;;;20.03;12.63;;;8.70;99.90;;;;;;5019555;28;20194;-59
2022/03/15 02:00:36;;;;;;;19.97;13.10;;;8.70;99.90;;;;;;5028656;28;20179;-59
2022/03/15 02:03:03;;;;;;;20.80;12.40;;;8.70;99.90;;;;;;5013582;28;20758;-60
2022/03/15 02:05:30;;;;;;;16.07;13.17;;;8.80;99.90;;;;;;5013773;28;20559;-59
2022/03/15 02:07:56;;;;;;;18.23;12.27;;;8.90;99.90;;;;;;5012001;28;20192;-59
2022/03/15 02:10:22;;;;;;;18.80;11.77;;;8.90;99.90;;;;;;4996352;28;20186;-59
2022/03/15 02:12:48;;;;;;;19.47;12.73;;;8.90;99.90;;;;;;5012819;28;20183;-59
2022/03/15 02:15:14;;;;;;;16.07;11.23;;;9.00;99.90;;;;;;5011583;28;20198;-59
2022/03/15 02:17:40;;;;;;;22.47;12.37;;;9.10;99.90;;;;;;5013649;28;20607;-59
2022/03/15 02:20:09;;;;;;;16.90;12.37;;;9.10;99.90;;;;;;4980166;28;20602;-60
2022/03/15 02:22:36;;;;;;;18.73;12.10;;;9.10;99.90;;;;;;5013712;28;20602;-60
2022/03/15 02:25:02;;;;;;;16.53;11.57;;;9.30;99.90;;;;;;5013438;28;20203;-60
2022/03/15 02:27:28;;;;;;;17.13;11.43;;;9.20;99.90;;;;;;4995734;28;20187;-60
2022/03/15 02:29:54;;;;;;;12.20;10.40;;;9.10;99.90;;;;;;5013216;28;20190;-60
2022/03/15 02:32:21;;;;;;;17.90;12.30;;;8.90;99.90;;;;;;5028302;28;20241;-60
2022/03/15 02:34:47;;;;;;;20.27;10.87;;;8.80;99.90;;;;;;5009706;28;20211;-60
2022/03/15 02:37:12;;;;;;;18.63;11.93;;;8.70;99.90;;;;;;4995781;28;20195;-60
2022/03/15 02:39:38;;;;;;;14.67;11.37;;;8.70;99.90;;;;;;4995940;28;20274;-60
2022/03/15 02:42:04;;;;;;;17.47;11.17;;;8.70;99.90;;;;;;4998880;28;20193;-60
2022/03/15 02:44:29;;;;;;;16.07;11.83;;;8.70;99.90;;;;;;5013391;28;20195;-60
2022/03/15 02:46:55;;;;;;;16.03;12.00;;;8.70;99.90;;;;;;4999810;28;20209;-60
2022/03/15 02:49:20;;;;;;;20.77;12.10;;;8.60;99.90;;;;;;5012667;28;20262;-59
2022/03/15 02:51:46;;;;;;;17.30;10.77;;;8.60;99.90;;;;;;5016911;28;20211;-60
2022/03/15 02:54:13;;;;;;;13.27;10.63;;;8.50;99.90;;;;;;5010384;28;20223;-61
2022/03/15 02:56:43;;;;;;;18.67;11.57;;;8.50;99.90;;;;;;4995881;28;20246;-60
2022/03/15 02:59:10;;;;;;;19.33;11.73;;;8.50;99.90;;;;;;5016373;28;20175;-60
2022/03/15 03:01:36;;;;;;;13.20;10.80;;;8.60;99.90;;;;;;5029760;28;20218;-60
2022/03/15 03:04:02;;;;;;;14.53;10.63;;;8.60;99.90;;;;;;5016599;28;20211;-60
2022/03/15 03:06:27;;;;;;;15.03;11.10;;;8.50;99.90;;;;;;5016830;28;20195;-59
2022/03/15 03:08:53;;;;;;;14.13;10.27;;;8.60;99.90;;;;;;4999001;28;20270;-59
2022/03/15 03:11:19;;;;;;;14.40;11.43;;;8.30;99.90;;;;;;4999417;28;20219;-59
2022/03/15 03:13:47;;;;;;;15.83;10.83;;;8.30;99.90;;;;;;5016154;28;20243;-59
2022/03/15 03:16:14;;;;;;;18.13;12.07;;;8.50;99.90;;;;;;5016596;28;20663;-59
2022/03/15 03:18:40;;;;;;;12.07;10.40;;;8.50;99.90;;;;;;5016517;28;20202;-59
2022/03/15 03:21:06;;;;;;;17.17;10.73;;;8.60;99.90;;;;;;5009557;28;20201;-59
2022/03/15 03:23:39;;;;;;;17.03;11.07;;;8.60;99.90;;;;;;5000267;28;20285;-59
2022/03/15 03:26:05;;;;;;;13.10;11.20;;;8.40;99.90;;;;;;5026532;28;20186;-60
2022/03/15 03:28:38;;;;;;;14.83;10.47;;;8.30;99.90;;;;;;5034753;28;20187;-60
2022/03/15 03:31:07;;;;;;;13.07;10.23;;;8.40;99.90;;;;;;5015883;28;20191;-62
2022/03/15 03:33:33;;;;;;;15.60;10.73;;;8.30;99.90;;;;;;5016712;28;20223;-61
2022/03/15 03:35:59;;;;;;;17.93;10.67;;;8.40;99.90;;;;;;5016210;28;20180;-60
2022/03/15 03:38:25;;;;;;;12.80;10.97;;;8.30;99.90;;;;;;5002688;28;20647;-60
2022/03/15 03:40:51;;;;;;;17.60;10.83;;;8.40;99.90;;;;;;5015414;28;20274;-61
2022/03/15 03:43:17;;;;;;;14.60;11.03;;;8.40;99.90;;;;;;5029911;28;20198;-61
2022/03/15 03:45:43;;;;;;;11.77;10.27;;;8.30;99.90;;;;;;5035096;28;20195;-60
2022/03/15 03:48:09;;;;;;;21.07;12.17;;;8.40;99.90;;;;;;5034012;28;20187;-61
2022/03/15 03:50:35;;;;;;;15.70;10.23;;;8.40;99.90;;;;;;4998093;28;20183;-60
2022/03/15 03:53:02;;;;;;;17.97;10.33;;;8.40;99.90;;;;;;5004133;28;20305;-62
2022/03/15 03:55:28;;;;;;;16.00;9.67;;;8.40;99.90;;;;;;5028439;28;20179;-64
2022/03/15 03:57:54;;;;;;;14.00;10.27;;;8.40;99.90;;;;;;4998856;28;20551;-61
2022/03/15 04:00:20;;;;;;;16.97;10.93;;;8.40;99.90;;;;;;5015701;28;20680;-59
2022/03/15 04:02:46;;;;;;;12.50;10.03;;;8.40;99.90;;;;;;5015544;28;20202;-59
2022/03/15 04:05:13;;;;;;;11.77;9.10;;;8.30;99.90;;;;;;5019517;28;20187;-59
2022/03/15 04:07:40;;;;;;;13.53;9.83;;;8.20;99.90;;;;;;4996741;28;20191;-59
2022/03/15 04:10:08;;;;;;;18.50;11.33;;;8.10;99.90;;;;;;5014329;28;20775;-59
2022/03/15 04:12:34;;;;;;;11.73;9.77;;;8.10;99.90;;;;;;4997626;28;20278;-59
2022/03/15 04:15:01;;;;;;;16.20;10.60;;;8.30;99.90;;;;;;4996852;28;20254;-60
2022/03/15 04:17:26;;;;;;;13.50;9.50;;;8.30;99.90;;;;;;5015335;28;20190;-59
2022/03/15 04:19:53;;;;;;;12.07;8.77;;;8.30;99.90;;;;;;5009421;28;20268;-59
2022/03/15 04:22:19;;;;;;;15.33;9.50;;;8.30;99.90;;;;;;5015560;28;20183;-59
2022/03/15 04:24:45;;;;;;;17.33;10.03;;;8.20;99.90;;;;;;5015379;28;20195;-59
2022/03/15 04:27:11;;;;;;;18.70;9.83;;;8.20;99.90;;;;;;5002206;28;20191;-60
2022/03/15 04:29:37;;;;;;;17.53;9.97;;;8.20;99.90;;;;;;5015187;28;20273;-60
2022/03/15 04:32:03;;;;;;;15.33;9.00;;;8.10;99.90;;;;;;5009883;28;20624;-60
2022/03/15 04:34:30;;;;;;;15.67;10.07;;;8.30;99.90;;;;;;5015158;28;20219;-60
2022/03/15 04:36:59;;;;;;;12.17;8.57;;;8.30;99.90;;;;;;4997561;28;20282;-61
2022/03/15 04:39:25;;;;;;;19.57;10.03;;;8.30;99.90;;;;;;5006031;28;20632;-60
2022/03/15 04:41:51;;;;;;;13.80;9.00;;;8.20;99.90;;;;;;5015169;28;20183;-59
2022/03/15 04:44:17;;;;;;;10.00;7.50;;;8.30;99.90;;;;;;5004314;28;20199;-59
2022/03/15 04:46:43;;;;;;;14.87;8.07;;;8.30;99.90;;;;;;4996951;28;20191;-59
2022/03/15 04:49:08;;;;;;;10.63;7.37;;;8.40;99.90;;;;;;5014247;28;20226;-59
2022/03/15 04:51:34;;;;;;;11.53;8.17;;;8.40;99.90;;;;;;4988750;28;20237;-59
2022/03/15 04:54:00;;;;;;;17.23;7.93;;;8.30;99.90;;;;;;5013145;28;20628;-59
2022/03/15 04:56:26;;;;;;;14.00;9.90;;;8.30;99.90;;;;;;5014038;28;20197;-59
2022/03/15 04:58:51;;;;;;;14.23;7.90;;;8.20;99.90;;;;;;5002170;28;20730;-60
2022/03/15 05:01:17;;;;;;;8.67;7.07;;;8.30;99.90;;;;;;4997380;28;20651;-63
2022/03/15 05:03:43;;;;;;;11.70;7.40;;;8.30;99.90;;;;;;5014250;28;20195;-60
2022/03/15 05:06:09;;;;;;;11.03;7.03;;;8.30;99.90;;;;;;5014541;28;20195;-59
2022/03/15 05:08:34;;;;;;;14.20;7.20;;;8.30;99.90;;;;;;5012365;28;20219;-59
2022/03/15 05:11:06;;;;;;;11.33;6.87;;;8.40;99.90;;;;;;5014391;28;20191;-59
2022/03/15 05:13:49;;;;;;;14.00;8.20;;;8.40;99.90;;;;;;5014403;28;20211;-59
2022/03/15 05:16:18;;;;;;;10.70;6.77;;;8.40;99.90;;;;;;5011874;28;20498;-59
2022/03/15 05:18:50;;;;;;;8.77;7.10;;;8.30;99.90;;;;;;4995862;28;20657;-60
2022/03/15 05:21:16;;;;;;;11.73;7.80;;;8.40;99.90;;;;;;5009556;28;20195;-59
2022/03/15 05:23:45;;;;;;;8.03;6.43;;;8.50;99.90;;;;;;5027187;28;20201;-59
2022/03/15 05:26:12;;;;;;;7.83;6.60;;;8.40;99.90;;;;;;5012050;28;20672;-59
2022/03/15 05:28:38;;;;;;;12.83;7.17;;;8.40;99.90;;;;;;5026281;28;20187;-59
2022/03/15 05:31:04;;;;;;;12.97;7.13;;;8.30;99.90;;;;;;5018789;28;20182;-59
2022/03/15 05:33:30;;;;;;;12.70;7.53;;;8.30;99.90;;;;;;5030044;28;20219;-59
2022/03/15 05:35:57;;;;;;;11.47;7.90;;;8.40;99.90;;;;;;4991177;28;20182;-60
2022/03/15 05:38:23;;;;;;;13.63;8.07;;;8.40;99.90;;;;;;5014916;28;20182;-60
2022/03/15 05:40:49;;;;;;;13.73;7.30;;;8.40;99.90;;;;;;5032764;28;20188;-60
2022/03/15 05:43:15;;;;;;;11.17;7.50;;;8.50;99.90;;;;;;5019878;28;20265;-59
2022/03/15 05:45:41;;;;;;;10.90;7.33;;;8.50;99.90;;;;;;5013866;28;20257;-60
2022/03/15 05:48:07;;;;;;;9.80;7.13;;;8.50;99.90;;;;;;5013845;28;20196;-60
2022/03/15 05:50:33;;;;;;;11.07;7.63;;;8.40;99.90;;;;;;5013361;28;20250;-60
2022/03/15 05:53:04;;;;;;;12.13;7.47;;;8.40;99.90;;;;;;5025422;28;20186;-60
2022/03/15 05:55:33;;;;;;;12.47;6.80;;;8.50;99.90;;;;;;5032076;28;20240;-60
2022/03/15 05:58:00;;;;;;;7.77;6.53;;;8.50;99.90;;;;;;5002030;28;20552;-60
2022/03/15 06:00:26;;;;;;;9.60;6.50;;;8.50;99.90;;;;;;5007458;28;20365;-59
2022/03/15 06:02:52;;;;;;;11.27;7.17;;;8.40;99.90;;;;;;5009375;28;20587;-60
2022/03/15 06:05:18;;;;;;;11.00;7.13;;;8.40;99.90;;;;;;5011657;28;20211;-60
2022/03/15 06:07:49;;;;;;;11.47;8.23;;;8.40;99.90;;;;;;5031055;28;20640;-60
2022/03/15 06:10:18;;;;;;;11.70;7.63;;;8.30;99.90;;;;;;5032340;28;20300;-60
2022/03/15 06:12:45;;;;;;;11.37;6.60;;;8.40;99.90;;;;;;5018145;28;20293;-61
2022/03/15 06:15:11;;;;;;;7.10;6.10;;;8.40;99.90;;;;;;4997722;28;20179;-60
2022/03/15 06:17:57;;;;;;;14.60;8.57;;;8.30;99.90;;;;;;5013574;28;20199;-60
2022/03/15 06:20:25;;;;;;;11.57;6.97;;;8.30;99.90;;;;;;5009333;28;20195;-60
2022/03/15 06:22:50;;;;;;;14.70;7.97;;;8.30;99.90;;;;;;4995861;28;20192;-60
2022/03/15 06:25:16;;;;;;;15.23;7.03;;;8.30;99.90;;;;;;5004451;28;20656;-60
2022/03/15 06:27:43;;;;;;;11.87;7.07;;;8.20;99.90;;;;;;4995888;28;20191;-60
2022/03/15 06:30:11;;;;;;;9.80;7.70;;;8.30;99.90;;;;;;5018575;28;20182;-60
2022/03/15 06:32:36;;;;;;;13.07;7.70;;;8.40;99.90;;;;;;5019706;28;20306;-60
2022/03/15 06:35:07;;;;;;;12.17;8.00;;;8.50;99.90;;;;;;5017084;28;20298;-60
2022/03/15 06:37:43;;;;;;;15.07;7.97;;;8.60;99.90;;;;;;5003973;28;20199;-60
2022/03/15 06:40:09;;;;;;;21.57;8.87;;;8.70;99.90;;;;;;4999995;28;20198;-60
2022/03/15 06:42:36;;;;;;;12.17;8.23;;;8.50;99.90;;;;;;5016433;28;20282;-60
2022/03/15 06:45:03;;;;;;;12.60;8.20;;;8.40;99.90;;;;;;5018593;28;20179;-60
2022/03/15 06:47:28;;;;;;;12.23;7.50;;;8.40;99.90;;;;;;5018759;28;20178;-58
2022/03/15 06:49:54;;;;;;;9.77;8.77;;;8.60;99.90;;;;;;4997128;28;20286;-59
2022/03/15 06:52:20;;;;;;;17.30;8.33;;;8.60;99.90;;;;;;5002889;28;20274;-60
2022/03/15 06:54:45;;;;;;;14.37;7.63;;;8.50;99.90;;;;;;5035796;28;20210;-61
2022/03/15 06:57:11;;;;;;;16.50;11.53;;;8.60;99.90;;;;;;5022257;28;20666;-60
2022/03/15 06:59:37;;;;;;;19.00;11.37;;;8.70;99.90;;;;;;4999454;28;20233;-60
2022/03/15 07:02:03;;;;;;;16.77;11.03;;;8.70;99.90;;;;;;5030285;28;20570;-60
2022/03/15 07:04:28;;;;;;;16.37;10.07;;;8.80;99.90;;;;;;5029015;28;20196;-59
2022/03/15 07:06:54;;;;;;;14.13;9.33;;;9.00;99.90;;;;;;4998857;28;20282;-59
2022/03/15 07:09:20;;;;;;;18.47;8.97;;;9.00;99.90;;;;;;5008991;28;20191;-59
2022/03/15 07:11:45;;;;;;;15.63;9.23;;;9.00;99.90;;;;;;5021672;28;20218;-60
2022/03/15 07:14:11;;;;;;;13.67;9.73;;;9.10;99.90;;;;;;5015960;28;20695;-59
2022/03/15 07:16:37;;;;;;;13.73;10.17;;;9.10;99.90;;;;;;5000186;28;20219;-59
2022/03/15 07:19:02;;;;;;;16.30;9.73;;;9.20;99.90;;;;;;5000612;28;20195;-60
2022/03/15 07:21:28;;;;;;;16.70;9.97;;;9.10;99.90;;;;;;5029849;28;20556;-61
2022/03/15 07:23:54;;;;;;;17.27;10.83;;;9.10;99.90;;;;;;5017588;28;20277;-61
2022/03/15 07:26:20;;;;;;;18.60;9.77;;;9.00;99.90;;;;;;5003991;28;20274;-58
2022/03/15 07:28:45;;;;;;;10.93;7.13;;;9.00;99.90;;;;;;5001718;28;20593;-59
2022/03/15 07:31:11;;;;;;;13.90;7.57;;;9.00;99.90;;;;;;5006516;28;20184;-58
2022/03/15 07:33:36;;;;;;;15.03;7.23;;;9.10;99.90;;;;;;5013833;28;20222;-58
2022/03/15 07:36:03;;;;;;;12.90;7.50;;;9.20;99.90;;;;;;5018632;28;20198;-59
2022/03/15 07:38:30;;;;;;;13.00;6.60;;;9.60;99.90;;;;;;5035151;28;20189;-61
2022/03/15 07:40:58;;;;;;;11.83;6.23;;;9.60;99.90;;;;;;5014048;28;20218;-58
2022/03/15 07:43:24;;;;;;;8.87;6.50;;;9.60;99.90;;;;;;5030867;28;20220;-58
2022/03/15 07:45:50;;;;;;;8.33;7.17;;;9.80;99.90;;;;;;5012707;28;20546;-58
2022/03/15 07:48:16;;;;;;;10.30;6.53;;;9.70;99.90;;;;;;5015304;28;20196;-59
2022/03/15 07:50:42;;;;;;;11.33;6.37;;;9.60;99.90;;;;;;5000383;28;20183;-60
2022/03/15 07:53:08;;;;;;;14.20;7.27;;;9.50;99.90;;;;;;4997669;28;20227;-60
2022/03/15 07:55:34;;;;;;;14.43;6.53;;;9.50;99.90;;;;;;5016556;28;20707;-60
2022/03/15 07:58:00;;;;;;;11.33;5.40;;;9.50;99.90;;;;;;5024245;28;20245;-60
2022/03/15 08:00:26;;;;;;;10.53;6.33;;;9.40;99.90;;;;;;5018474;28;20670;-59
2022/03/15 08:02:52;;;;;;;8.33;5.87;;;9.40;99.90;;;;;;5010172;28;20194;-60
2022/03/15 08:05:19;;;;;;;7.13;5.13;;;9.60;99.90;;;;;;4992637;28;20669;-60
2022/03/15 08:07:45;;;;;;;8.17;5.70;;;9.60;99.90;;;;;;5016627;28;20662;-62
2022/03/15 08:10:11;;;;;;;10.63;6.10;;;9.50;99.90;;;;;;4996845;28;20200;-60
2022/03/15 08:12:40;;;;;;;7.00;5.70;;;9.50;99.90;;;;;;5032845;28;20190;-60
2022/03/15 08:15:07;;;;;;;8.67;5.40;;;9.50;99.90;;;;;;5013647;28;20310;-60
2022/03/15 08:17:34;;;;;;;8.00;6.40;;;9.70;99.90;;;;;;5027280;28;20557;-59
2022/03/15 08:20:00;;;;;;;12.17;6.93;;;9.70;99.90;;;;;;5033512;28;20707;-59
2022/03/15 08:22:28;;;;;;;7.30;5.33;;;9.60;99.90;;;;;;5026649;28;20353;-59
2022/03/15 08:24:54;;;;;;;11.43;5.77;;;9.60;99.90;;;;;;5024230;28;20195;-60
2022/03/15 08:27:21;;;;;;;7.03;5.90;;;9.60;99.90;;;;;;5032101;28;20191;-60
2022/03/15 08:29:46;;;;;;;11.77;6.27;;;9.60;99.90;;;;;;5030406;28;20191;-61
2022/03/15 08:32:12;;;;;;;8.47;5.97;;;9.50;99.90;;;;;;5015115;28;20203;-61
2022/03/15 08:34:38;;;;;;;14.70;5.83;;;9.50;99.90;;;;;;5014858;28;20222;-61
2022/03/15 08:37:05;;;;;;;10.20;5.70;;;9.50;99.90;;;;;;4998428;28;20187;-61
2022/03/15 08:39:31;;;;;;;8.00;6.20;;;9.50;99.90;;;;;;5012653;28;20557;-61
2022/03/15 08:41:57;;;;;;;13.27;6.27;;;9.60;99.90;;;;;;4987218;28;20199;-61
2022/03/15 08:44:23;;;;;;;10.50;5.67;;;9.70;99.90;;;;;;5025099;28;20198;-62
2022/03/15 08:46:50;;;;;;;10.30;7.73;;;9.70;99.90;;;;;;5025637;28;20274;-61
2022/03/15 08:49:17;;;;;;;9.97;6.17;;;9.80;99.90;;;;;;5024355;28;20194;-61
2022/03/15 08:51:44;;;;;;;13.53;7.17;;;9.80;99.90;;;;;;5030751;28;20221;-60
2022/03/15 08:54:10;;;;;;;10.57;6.07;;;9.80;99.90;;;;;;5032962;28;20268;-60
2022/03/15 08:56:39;;;;;;;8.43;6.00;;;9.80;99.90;;;;;;5022429;28;20195;-61
2022/03/15 08:59:04;;;;;;;11.83;8.70;;;9.90;99.90;;;;;;5012442;28;20188;-61
2022/03/15 09:01:30;;;;;;;7.90;6.20;;;10.00;99.90;;;;;;5019563;28;20670;-60
2022/03/15 09:03:56;;;;;;;8.07;6.40;;;9.90;99.90;;;;;;5025883;28;20194;-61
2022/03/15 09:06:22;;;;;;;10.73;5.97;;;10.00;99.90;;;;;;5010225;28;20194;-62
2022/03/15 09:08:48;;;;;;;8.87;6.37;;;10.10;99.90;;;;;;5005986;28;20198;-61
2022/03/15 09:11:13;;;;;;;9.60;5.83;;;10.20;99.90;;;;;;5015544;28;20277;-61
2022/03/15 09:13:39;;;;;;;9.40;5.93;;;10.30;99.90;;;;;;5014149;28;20214;-61
2022/03/15 09:16:05;;;;;;;13.60;6.97;;;10.20;99.90;;;;;;5013938;28;20643;-61
2022/03/15 09:18:32;;;;;;;7.40;6.63;;;10.20;99.90;;;;;;5014752;28;20195;-61
2022/03/15 09:20:58;;;;;;;9.40;5.40;;;10.30;99.90;;;;;;5026152;28;20705;-61
2022/03/15 09:23:23;;;;;;;13.47;5.87;;;10.60;99.90;;;;;;5023107;28;20191;-60
2022/03/15 09:25:49;;;;;;;16.47;6.00;;;10.60;99.90;;;;;;5030806;28;20198;-61
2022/03/15 09:28:16;;;;;;;8.87;6.17;;;10.70;99.90;;;;;;4980554;28;20266;-65
2022/03/15 09:30:44;;;;;;;10.17;7.43;;;10.70;99.90;;;;;;5018556;28;20217;-61
2022/03/15 09:33:09;;;;;;;11.53;7.27;;;10.70;99.90;;;;;;5014947;28;20215;-61
2022/03/15 09:35:35;;;;;;;28.83;7.83;;;10.60;99.90;;;;;;5014325;28;20281;-61
2022/03/15 09:38:01;;;;;;;9.67;6.50;;;10.50;99.90;;;;;;5015265;28;20195;-59
2022/03/15 09:40:27;;;;;;;13.43;7.00;;;10.70;99.90;;;;;;5013386;28;20672;-60
2022/03/15 09:43:01;;;;;;;7.05;5.90;;;10.70;99.90;;;;;;5007274;28;20269;-60
2022/03/15 09:45:30;;;;;;;11.82;6.63;;;10.80;99.90;;;;;;5024945;28;20210;-61
2022/03/15 09:47:58;;;;;;;11.88;7.43;;;10.90;99.90;;;;;;5029466;28;20221;-61
2022/03/15 09:50:25;;;;;;;11.38;6.22;;;11.00;99.90;;;;;;5013345;28;20195;-60
2022/03/15 09:52:54;;;;;;;9.95;7.05;;;11.10;99.90;;;;;;5032134;28;20640;-60
2022/03/15 09:55:20;;;;;;;10.73;6.03;;;10.90;99.90;;;;;;5010980;28;20561;-60
2022/03/15 09:57:46;;;;;;;10.75;6.80;;;10.90;99.90;;;;;;5031274;28;20220;-60
2022/03/15 10:00:15;;;;;;;8.02;6.60;;;10.90;99.90;;;;;;5033436;28;20624;-60
2022/03/15 10:02:44;;;;;;;9.25;6.20;;;10.80;99.90;;;;;;5007003;28;20198;-62
2022/03/15 10:05:12;;;;;;;7.05;6.30;;;10.80;99.90;;;;;;5032376;28;20199;-60
2022/03/15 10:07:38;;;;;;;8.27;6.15;;;10.70;99.90;;;;;;5012090;28;20191;-60
2022/03/15 10:10:10;;;;;;;11.60;7.03;;;10.70;99.90;;;;;;5011109;28;20265;-63
2022/03/15 10:12:36;;;;;;;16.30;7.82;;;10.80;99.90;;;;;;5034827;28;20258;-60
2022/03/15 10:15:16;;;;;;;10.05;6.07;;;11.00;99.90;;;;;;5034296;28;20710;-60
2022/03/15 10:17:55;;;;;;;17.10;7.13;;;11.20;99.90;;;;;;5031086;28;20200;-61
2022/03/15 10:20:28;;;;;;;11.77;7.40;;;11.30;99.90;;;;;;5014408;28;20516;-61
2022/03/15 10:23:03;;;;;;;9.90;6.80;;;11.40;99.90;;;;;;5036145;28;20537;-61
2022/03/15 10:25:32;;;;;;;9.00;6.22;;;11.50;99.90;;;;;;5019265;28;20243;-60
2022/03/15 10:28:01;;;;;;;13.80;6.60;;;12.00;99.90;;;;;;5028469;28;20218;-60
2022/03/15 10:30:29;;;;;;;8.93;6.45;;;12.10;99.90;;;;;;5029478;28;20186;-60
2022/03/15 10:32:56;;;;;;;12.73;6.47;;;11.80;99.90;;;;;;5036221;28;20183;-61
2022/03/15 10:35:31;;;;;;;37.67;7.15;;;11.80;99.90;;;;;;5018908;28;20199;-60
2022/03/15 10:37:58;;;;;;;8.30;5.97;;;11.70;99.90;;;;;;5025622;28;20777;-61
2022/03/15 10:40:48;;;;;;;12.10;6.95;;;11.50;99.90;;;;;;5022088;28;20187;-61
2022/03/15 10:43:24;;;;;;;12.57;7.30;;;11.50;99.90;;;;;;5017009;28;20191;-63
2022/03/15 10:45:56;;;;;;;11.05;6.03;;;11.70;99.90;;;;;;5017069;28;20209;-62
2022/03/15 10:48:24;;;;;;;12.15;7.10;;;11.80;99.90;;;;;;5000568;28;20184;-61
2022/03/15 10:50:53;;;;;;;9.95;5.22;;;11.80;99.90;;;;;;5018912;28;20182;-64
2022/03/15 10:53:19;;;;;;;7.28;6.53;;;11.90;99.90;;;;;;5017774;28;20209;-60
2022/03/15 10:55:44;;;;;;;11.70;7.68;;;12.10;99.90;;;;;;5030633;28;20183;-60
2022/03/15 10:58:12;;;;;;;17.50;9.60;;;11.90;99.90;;;;;;5004027;28;20202;-62
2022/03/15 11:00:41;;;;;;;15.27;9.27;;;11.90;99.90;;;;;;5017622;28;20186;-61
2022/03/15 11:03:10;;;;;;;12.38;11.05;;;12.30;99.90;;;;;;5030141;28;20190;-66
2022/03/15 11:05:40;;;;;;;10.32;5.68;;;12.60;99.90;;;;;;4993996;28;20250;-61
2022/03/15 11:08:10;;;;;;;12.13;9.65;;;12.40;99.90;;;;;;5034071;28;20190;-61
2022/03/15 11:10:37;;;;;;;20.38;17.13;;;12.30;99.90;;;;;;5029717;28;20190;-61
2022/03/15 11:13:14;;;;;;;13.45;11.00;;;12.30;99.90;;;;;;4987476;28;20195;-61
2022/03/15 11:15:43;;;;;;;12.27;6.03;;;12.30;99.90;;;;;;5033907;28;20661;-61
2022/03/15 11:18:11;;;;;;;21.67;18.88;;;12.60;99.90;;;;;;5033461;28;20183;-61
2022/03/15 11:20:45;;;;;;;8.98;5.88;;;12.80;99.90;;;;;;5034941;28;20191;-61
2022/03/15 11:23:13;;;;;;;7.80;5.80;;;12.80;99.90;;;;;;5020004;28;20662;-62
2022/03/15 11:25:45;;;;;;;9.18;6.68;;;12.70;99.90;;;;;;5024696;28;20195;-62
2022/03/15 11:28:19;;;;;;;9.85;8.77;;;12.70;99.90;;;;;;5006542;28;20210;-62
2022/03/15 11:30:45;;;;;;;8.25;4.72;;;13.10;99.90;;;;;;5001847;28;20720;-61
2022/03/15 11:33:11;;;;;;;24.58;22.00;;;13.30;99.90;;;;;;5009486;28;20278;-61
2022/03/15 11:35:40;;;;;;;12.23;9.98;;;13.20;99.90;;;;;;5015361;28;20191;-62
2022/03/15 11:38:09;;;;;;;7.68;5.68;;;13.00;99.90;;;;;;5031129;28;20179;-61
2022/03/15 11:40:35;;;;;;;8.02;6.63;;;12.60;99.90;;;;;;5034859;28;20183;-65
2022/03/15 11:43:22;;;;;;;28.80;23.02;;;12.30;99.90;;;;;;5024261;28;20191;-61
2022/03/15 11:46:06;;;;;;;20.52;13.73;;;12.00;99.90;;;;;;5015992;28;20534;-65
2022/03/15 11:48:59;;;;;;;13.90;11.32;;;12.20;99.90;;;;;;5018160;28;20542;-61
2022/03/15 11:51:46;;;;;;;11.85;9.57;;;12.60;99.90;;;;;;5034503;28;20190;-61
2022/03/15 11:54:15;;;;;;;14.32;12.45;;;12.50;99.90;;;;;;5028240;28;20253;-62
2022/03/15 11:56:55;;;;;;;17.90;11.77;;;12.40;99.90;;;;;;5032347;28;20183;-61
2022/03/15 11:59:20;;;;;;;16.33;11.40;;;12.40;99.90;;;;;;5028881;28;20258;-62
2022/03/15 12:01:48;;;;;;;11.65;9.35;;;12.30;99.90;;;;;;5035644;28;20648;-61
2022/03/15 12:04:15;;;;;;;15.98;8.15;;;12.30;99.90;;;;;;5031222;28;20222;-61
2022/03/15 12:07:00;;;;;;;9.68;7.47;;;12.10;99.90;;;;;;5014565;28;20702;-62
2022/03/15 12:09:30;;;;;;;10.93;7.35;;;12.00;99.90;;;;;;5016207;28;20624;-61
2022/03/15 12:12:06;;;;;;;11.68;7.88;;;11.90;99.90;;;;;;5034705;28;20670;-61
2022/03/15 12:14:40;;;;;;;11.25;7.15;;;11.90;99.90;;;;;;5018399;28;20257;-61
2022/03/15 12:17:07;;;;;;;7.32;6.03;;;12.10;99.90;;;;;;5013976;28;20171;-63
2022/03/15 12:19:52;;;;;;;12.45;7.03;;;12.30;99.90;;;;;;4980683;28;20270;-62
2022/03/15 12:22:26;;;;;;;7.95;6.10;;;12.40;99.90;;;;;;5015232;28;20182;-62
2022/03/15 12:25:15;;;;;;;8.98;7.28;;;12.50;99.90;;;;;;5019846;28;20187;-61
2022/03/15 12:27:46;;;;;;;15.27;6.60;;;12.30;99.90;;;;;;5033060;28;20187;-62
2022/03/15 12:30:18;;;;;;;8.30;6.80;;;12.10;99.90;;;;;;5031846;28;20276;-61
2022/03/15 12:32:51;;;;;;;10.50;6.88;;;12.10;99.90;;;;;;5015192;28;21031;-64
2022/03/15 12:35:17;;;;;;;13.32;6.85;;;12.20;99.90;;;;;;5016210;28;20221;-62
2022/03/15 12:37:45;;;;;;;9.55;6.47;;;12.20;99.90;;;;;;5034380;28;20687;-62
2022/03/15 12:40:12;;;;;;;10.75;7.38;;;12.20;99.90;;;;;;5026024;28;20656;-64
2022/03/15 12:42:49;;;;;;;8.15;6.10;;;12.10;99.90;;;;;;5033698;28;20186;-62
2022/03/15 12:45:15;;;;;;;5.93;4.68;;;12.40;99.90;;;;;;4995913;28;20285;-62